createdAt,value
2023-05-10T00:03:59.677Z,5.21
2023-05-10T00:09:02.222Z,5.14
2023-05-10T00:14:04.923Z,5.06
2023-05-10T00:19:07.606Z,5.02
2023-05-10T00:24:10.184Z,4.99
2023-05-10T00:29:12.860Z,4.93
2023-05-10T00:34:15.797Z,5.47
2023-05-10T00:39:18.406Z,7.64
2023-05-10T00:44:20.966Z,9.13
2023-05-10T00:49:23.874Z,9.25
2023-05-10T00:54:26.608Z,7.78
2023-05-10T00:59:30.138Z,6.95
2023-05-10T01:04:32.686Z,6.44
2023-05-10T01:09:35.644Z,6.07
2023-05-10T01:14:38.538Z,5.79
2023-05-10T01:19:41.344Z,5.53
2023-05-10T01:25:06.272Z,5.31
2023-05-10T01:35:54.860Z,4.92
2023-05-10T01:41:12.700Z,4.77
2023-05-10T01:46:25.642Z,4.63
2023-05-10T01:51:36.438Z,4.48
2023-05-10T01:56:41.659Z,4.39
2023-05-10T02:01:46.068Z,4.32
2023-05-10T02:06:49.659Z,4.26
2023-05-10T02:11:54.810Z,4.20
2023-05-10T02:16:59.553Z,4.18
2023-05-10T02:22:04.289Z,4.16
2023-05-10T02:27:07.859Z,4.13
2023-05-10T02:32:11.718Z,4.10
2023-05-10T02:37:21.441Z,4.08
2023-05-10T02:42:28.773Z,4.80
2023-05-10T02:47:31.421Z,7.07
2023-05-10T02:52:47.679Z,8.50
2023-05-10T02:57:57.739Z,8.55
2023-05-10T03:03:00.450Z,6.93
2023-05-10T03:08:05.140Z,6.00
2023-05-10T03:13:30.621Z,5.46
2023-05-10T03:18:55.574Z,5.08
2023-05-10T03:24:04.040Z,4.82
2023-05-10T03:29:07.348Z,4.65
2023-05-10T03:34:10.030Z,4.55
2023-05-10T03:39:12.526Z,5.50
2023-05-10T03:44:15.100Z,7.91
2023-05-10T03:49:17.649Z,8.49
2023-05-10T03:54:20.294Z,7.33
2023-05-10T03:59:22.811Z,6.73
2023-05-10T04:04:25.394Z,6.48
2023-05-10T04:09:27.985Z,6.38
2023-05-10T04:14:30.586Z,6.46
2023-05-10T04:19:33.862Z,6.52
2023-05-10T04:24:36.408Z,6.57
2023-05-10T04:29:39.345Z,6.64
2023-05-10T04:34:41.932Z,6.77
2023-05-10T04:39:45.298Z,6.93
2023-05-10T04:44:48.038Z,7.10
2023-05-10T04:49:50.641Z,7.28
2023-05-10T04:54:53.249Z,7.49
2023-05-10T04:59:56.008Z,7.70
2023-05-10T05:05:01.515Z,7.92
2023-05-10T05:10:04.593Z,8.15
2023-05-10T05:15:09.881Z,8.39
2023-05-10T05:20:13.660Z,8.64
2023-05-10T05:25:16.917Z,8.90
2023-05-10T05:30:19.990Z,9.16
2023-05-10T05:35:22.573Z,9.45
2023-05-10T05:40:25.259Z,9.77
2023-05-10T05:45:27.924Z,10.08
2023-05-10T05:50:30.533Z,10.35
2023-05-10T05:55:33.430Z,10.64
2023-05-10T06:00:36.134Z,10.93
2023-05-10T06:05:38.820Z,11.22
2023-05-10T06:10:41.411Z,11.49
2023-05-10T06:15:45.359Z,11.78
2023-05-10T06:20:50.766Z,12.07
2023-05-10T06:25:54.280Z,12.33
2023-05-10T06:30:57.902Z,12.62
2023-05-10T06:36:01.200Z,12.90
2023-05-10T06:41:04.110Z,13.15
2023-05-10T06:46:08.211Z,13.38
2023-05-10T06:51:11.115Z,13.61
2023-05-10T06:56:13.701Z,13.85
2023-05-10T07:01:16.374Z,14.12
2023-05-10T07:06:32.291Z,14.37
2023-05-10T07:11:38.350Z,14.62
2023-05-10T07:16:40.972Z,14.82
2023-05-10T07:21:44.310Z,15.02
2023-05-10T07:26:47.199Z,15.25
2023-05-10T07:31:50.038Z,15.46
2023-05-10T07:36:53.563Z,15.66
2023-05-10T07:41:56.783Z,15.85
2023-05-10T07:46:59.549Z,15.98
2023-05-10T07:52:04.211Z,16.12
2023-05-10T07:57:07.235Z,16.27
2023-05-10T08:02:09.853Z,16.36
2023-05-10T08:07:12.570Z,16.43
2023-05-10T08:12:15.287Z,16.53
2023-05-10T08:17:20.083Z,16.64
2023-05-10T08:22:23.182Z,16.75
2023-05-10T08:27:25.951Z,16.85
2023-05-10T08:32:28.518Z,16.94
2023-05-10T08:37:31.339Z,17.07
2023-05-10T08:42:37.113Z,17.16
2023-05-10T08:47:40.182Z,17.25
2023-05-10T08:52:43.597Z,17.35
2023-05-10T08:57:46.491Z,17.47
2023-05-10T09:02:51.176Z,17.58
2023-05-10T09:07:53.917Z,17.67
2023-05-10T09:12:59.336Z,17.77
2023-05-10T09:18:03.356Z,17.83
2023-05-10T09:23:06.783Z,17.94
2023-05-10T09:28:10.561Z,18.07
2023-05-10T09:33:13.202Z,18.19
2023-05-10T09:38:16.340Z,18.35
2023-05-10T09:43:18.907Z,18.52
2023-05-10T09:48:25.014Z,18.60
2023-05-10T09:53:27.571Z,18.66
2023-05-10T09:58:30.374Z,18.67
2023-05-10T10:03:33.971Z,18.74
2023-05-10T10:08:37.229Z,18.83
2023-05-10T10:13:41.353Z,18.91
2023-05-10T10:18:45.347Z,18.98
2023-05-10T10:23:51.992Z,19.06
2023-05-10T10:29:26.538Z,19.10
2023-05-10T10:34:31.432Z,19.25
2023-05-10T10:39:34.175Z,19.33
2023-05-10T10:44:39.262Z,19.38
2023-05-10T10:49:41.910Z,19.50
2023-05-10T10:54:53.377Z,19.66
2023-05-10T11:00:23.952Z,19.85
2023-05-10T11:05:38.563Z,20.00
2023-05-10T11:10:49.719Z,20.11
2023-05-10T11:15:52.481Z,20.28
2023-05-10T11:21:10.194Z,20.44
2023-05-10T11:26:13.414Z,20.55
2023-05-10T11:31:17.827Z,20.62
2023-05-10T11:36:22.520Z,20.73
2023-05-10T11:41:26.445Z,20.85
2023-05-10T11:46:29.620Z,20.90
2023-05-10T11:51:36.143Z,20.95
2023-05-10T11:56:40.188Z,20.99
2023-05-10T12:01:43.838Z,21.09
2023-05-10T12:06:47.518Z,21.21
2023-05-10T12:11:50.053Z,21.26
2023-05-10T12:16:52.723Z,21.31
2023-05-10T12:21:55.368Z,21.28
2023-05-10T12:26:57.973Z,21.22
2023-05-10T12:32:01.332Z,21.32
2023-05-10T12:37:05.139Z,21.39
2023-05-10T12:42:08.059Z,21.55
2023-05-10T12:47:10.719Z,21.67
2023-05-10T12:52:13.234Z,21.75
2023-05-10T12:57:16.002Z,21.74
2023-05-10T13:02:19.136Z,21.81
2023-05-10T13:07:21.826Z,21.92
2023-05-10T13:12:24.507Z,21.90
2023-05-10T13:17:27.149Z,21.89
2023-05-10T13:22:39.741Z,22.11
2023-05-10T13:27:43.004Z,22.41
2023-05-10T13:38:08.723Z,23.03
2023-05-10T13:43:11.369Z,23.38
2023-05-10T13:48:14.571Z,23.68
2023-05-10T13:53:17.185Z,23.91
2023-05-10T13:58:20.536Z,24.07
2023-05-10T14:03:23.475Z,24.23
2023-05-10T14:08:28.227Z,24.41
2023-05-10T14:13:31.373Z,24.65
2023-05-10T14:18:34.060Z,24.89
2023-05-10T14:23:36.790Z,25.27
2023-05-10T14:28:39.491Z,25.73
2023-05-10T14:33:42.241Z,26.16
2023-05-10T14:38:45.019Z,26.51
2023-05-10T14:43:47.541Z,26.79
2023-05-10T14:48:50.159Z,27.33
2023-05-10T14:53:53.114Z,27.88
2023-05-10T14:58:56.643Z,28.13
2023-05-10T15:04:00.012Z,28.45
2023-05-10T15:09:04.523Z,28.74
2023-05-10T15:14:07.383Z,29.12
2023-05-10T15:19:10.992Z,29.51
2023-05-10T15:24:13.612Z,30.02
2023-05-10T15:29:20.927Z,30.36
2023-05-10T15:34:23.510Z,30.60
2023-05-10T15:39:26.061Z,30.78
2023-05-10T15:44:28.933Z,31.11
2023-05-10T15:49:31.679Z,31.29
2023-05-10T15:54:34.251Z,31.34
2023-05-10T15:59:37.748Z,31.80
2023-05-10T16:04:40.359Z,31.95
2023-05-10T16:09:43.111Z,31.97
2023-05-10T16:14:46.759Z,31.47
2023-05-10T16:19:49.393Z,30.12
2023-05-10T16:24:53.628Z,28.43
2023-05-10T16:29:56.264Z,26.21
2023-05-10T16:34:59.002Z,24.42
2023-05-10T16:40:01.666Z,22.89
2023-05-10T16:45:07.684Z,21.80
2023-05-10T16:50:10.468Z,21.23
2023-05-10T16:55:13.078Z,20.61
2023-05-10T17:00:16.306Z,20.05
2023-05-10T17:05:19.063Z,19.90
2023-05-10T17:10:21.818Z,19.54
2023-05-10T17:15:24.407Z,19.01
2023-05-10T17:20:27.503Z,18.40
2023-05-10T17:25:30.063Z,17.86
2023-05-10T17:30:32.967Z,17.39
2023-05-10T17:35:35.644Z,16.97
2023-05-10T17:40:40.928Z,16.83
2023-05-10T17:45:44.793Z,16.64
2023-05-10T17:50:50.018Z,16.27
2023-05-10T17:55:52.736Z,15.90
2023-05-10T18:00:58.390Z,15.53
2023-05-10T18:06:01.259Z,15.18
2023-05-10T18:11:03.930Z,14.87
2023-05-10T18:16:08.881Z,14.61
2023-05-10T18:21:11.472Z,14.33
2023-05-10T18:26:14.160Z,14.05
2023-05-10T18:31:16.811Z,13.77
2023-05-10T18:36:19.460Z,13.46
2023-05-10T18:41:22.417Z,13.17
2023-05-10T18:46:25.153Z,12.92
2023-05-10T18:51:29.551Z,12.66
2023-05-10T18:56:32.187Z,12.38
2023-05-10T19:01:34.742Z,12.11
2023-05-10T19:06:37.398Z,11.85
2023-05-10T19:11:40.989Z,11.62
2023-05-10T19:16:43.712Z,11.43
2023-05-10T19:21:48.350Z,11.26
2023-05-10T19:26:51.988Z,11.06
2023-05-10T19:31:54.627Z,10.86
2023-05-10T19:36:57.266Z,10.67
2023-05-10T19:42:00.773Z,10.50
2023-05-10T19:47:05.198Z,10.32
2023-05-10T19:52:08.156Z,10.17
2023-05-10T19:57:12.027Z,10.06
2023-05-10T20:02:15.476Z,9.98
2023-05-10T20:07:20.969Z,9.90
2023-05-10T20:12:26.465Z,9.81
2023-05-10T20:17:29.472Z,9.71
2023-05-10T20:22:32.078Z,9.60
2023-05-10T20:27:38.612Z,9.47
2023-05-10T20:32:49.157Z,9.35
2023-05-10T20:37:53.050Z,9.24
2023-05-10T20:42:55.789Z,9.13
2023-05-10T20:47:58.523Z,8.99
2023-05-10T20:53:01.383Z,8.87
2023-05-10T20:58:05.104Z,8.74
2023-05-10T21:03:08.086Z,8.62
2023-05-10T21:08:10.765Z,8.51
2023-05-10T21:13:13.458Z,8.42
2023-05-10T21:18:16.013Z,8.31
2023-05-10T21:23:18.659Z,8.21
2023-05-10T21:28:21.649Z,8.10
2023-05-10T21:33:24.362Z,7.98
2023-05-10T21:38:29.996Z,7.87
2023-05-10T21:43:32.765Z,7.79
2023-05-10T21:48:36.376Z,7.68
2023-05-10T21:53:39.435Z,7.59
2023-05-10T21:58:41.943Z,7.51
2023-05-10T22:03:44.774Z,7.47
2023-05-10T22:08:47.422Z,7.42
2023-05-10T22:13:50.003Z,7.38
2023-05-10T22:18:54.418Z,7.35
2023-05-10T22:23:57.145Z,7.31
2023-05-10T22:28:59.862Z,7.27
2023-05-10T22:34:02.516Z,7.23
2023-05-10T22:39:05.039Z,7.21
2023-05-10T22:44:08.244Z,7.16
2023-05-10T22:49:11.350Z,7.09
2023-05-10T22:54:14.050Z,7.03
2023-05-10T22:59:16.580Z,6.98
2023-05-10T23:04:19.177Z,6.94
2023-05-10T23:09:21.794Z,6.87
2023-05-10T23:14:24.433Z,6.78
2023-05-10T23:19:26.984Z,6.72
2023-05-10T23:24:29.575Z,6.71
2023-05-10T23:29:32.978Z,6.73
2023-05-10T23:34:36.521Z,6.69
2023-05-10T23:39:39.065Z,6.57
2023-05-10T23:44:41.794Z,6.43
2023-05-10T23:49:44.455Z,6.26
2023-05-10T23:54:47.291Z,6.07
2023-05-10T23:59:51.131Z,5.89
